Time;durP1;ratioP1;P1;durP2;ratioP2;P2;SDS_P1;SDS_P2;PMS_P1;PMS_P2;Temp;Humidity;BMP_temperature;BMP_pressure;BME280_temperature;BME280_humidity;BME280_pressure;Samples;Min_cycle;Max_cycle;Signal;HPM_P1;HPM_P2
2022/02/01 00:01:45;;;;;;;;;;;;;;;21.54;25.33;95205.63;10384251;28;1712;-59
2022/02/01 00:07:06;;;;;;;;;;;;;;;21.58;25.39;95195.28;10387662;28;1797;-56
2022/02/01 00:17:38;;;;;;;;;;;;;;;21.58;24.15;95195.28;10383008;28;1925;-59
2022/02/01 00:38:48;;;;;;;;;;;;;;;21.62;25.32;95190.97;10393942;28;1851;-57
2022/02/01 00:43:49;;;;;;;;;;;;;;;21.60;24.22;95201.81;10395229;28;1872;-56
2022/02/01 00:48:50;;;;;;;;;;;;;;;21.56;23.95;95200.06;10393466;28;1700;-57
2022/02/01 00:53:50;;;;;;;;;;;;;;;21.54;24.23;95196.94;10399959;28;1972;-55
2022/02/01 00:58:51;;;;;;;;;;;;;;;21.57;24.54;95209.56;10395458;28;1894;-56
2022/02/01 01:03:52;;;;;;;;;;;;;;;21.60;24.32;95227.41;10397352;28;1744;-57
2022/02/01 01:08:52;;;;;;;;;;;;;;;21.60;24.47;95222.13;10400322;28;1811;-56
2022/02/01 01:56:19;;;;;;;;;;;;;;;21.63;24.78;95282.22;10390963;28;1801;-55
2022/02/01 02:01:20;;;;;;;;;;;;;;;21.61;23.97;95279.09;10380406;28;1859;-55
2022/02/01 02:06:21;;;;;;;;;;;;;;;21.62;24.67;95286.72;10389498;28;1801;-55
2022/02/01 02:11:34;;;;;;;;;;;;;;;21.65;24.64;95290.63;10389820;28;1914;-55
2022/02/01 02:16:36;;;;;;;;;;;;;;;21.65;24.90;95288.00;10394783;28;1815;-58
2022/02/01 02:21:38;;;;;;;;;;;;;;;21.70;25.20;95288.69;10387700;28;2054;-52
2022/02/01 02:26:39;;;;;;;;;;;;;;;21.72;25.25;95296.31;10386911;28;1801;-58
2022/02/01 02:31:39;;;;;;;;;;;;;;;21.67;24.67;95302.47;10392120;28;1934;-53
2022/02/01 02:36:46;;;;;;;;;;;;;;;21.68;25.40;95322.47;10388755;28;1946;-54
2022/02/01 02:41:53;;;;;;;;;;;;;;;21.69;24.85;95325.91;10398830;28;1845;-53
2022/02/01 02:46:54;;;;;;;;;;;;;;;21.69;25.44;95349.66;10388184;28;1801;-55
2022/02/01 02:51:54;;;;;;;;;;;;;;;21.67;25.50;95359.72;10392330;28;1972;-55
2022/02/01 02:56:58;;;;;;;;;;;;;;;21.70;25.62;95377.63;10390693;28;1798;-54
2022/02/01 03:01:59;;;;;;;;;;;;;;;21.65;24.86;95390.88;10385335;28;1865;-56
2022/02/01 03:06:59;;;;;;;;;;;;;;;21.65;25.29;95396.94;10399367;28;1826;-54
2022/02/01 03:12:02;;;;;;;;;;;;;;;21.68;25.42;95411.38;10402171;28;1975;-54
2022/02/01 03:22:08;;;;;;;;;;;;;;;21.67;25.79;95426.44;10385346;28;1820;-57
2022/02/01 03:27:09;;;;;;;;;;;;;;;21.70;25.70;95430.38;10393850;28;1932;-60
2022/02/01 03:32:09;;;;;;;;;;;;;;;21.71;25.24;95447.75;10369565;28;2181;-56
2022/02/01 03:37:09;;;;;;;;;;;;;;;21.69;25.76;95455.97;10386260;28;1840;-54
2022/02/01 03:42:10;;;;;;;;;;;;;;;21.67;25.02;95449.41;10380435;28;1972;-57
2022/02/01 03:47:10;;;;;;;;;;;;;;;21.69;25.60;95465.72;10386798;28;1820;-57
2022/02/01 03:52:11;;;;;;;;;;;;;;;21.68;25.64;95491.31;10381203;28;1906;-57
2022/02/01 03:57:14;;;;;;;;;;;;;;;21.67;25.64;95513.50;10384161;28;1868;-58
2022/02/01 04:02:15;;;;;;;;;;;;;;;21.66;25.28;95538.28;10384640;28;1818;-54
2022/02/01 04:07:15;;;;;;;;;;;;;;;21.68;25.54;95548.56;10388875;28;1791;-55
2022/02/01 04:12:16;;;;;;;;;;;;;;;21.68;25.58;95544.06;10381477;28;2026;-55
2022/02/01 04:17:16;;;;;;;;;;;;;;;21.70;25.78;95541.94;10381318;28;1947;-57
2022/02/01 04:22:17;;;;;;;;;;;;;;;21.70;25.44;95543.81;10398993;28;1911;-56
2022/02/01 04:32:23;;;;;;;;;;;;;;;21.66;25.38;95555.97;10380992;28;2078;-55
2022/02/01 04:37:23;;;;;;;;;;;;;;;21.63;25.31;95552.06;10383010;28;1881;-55
2022/02/01 04:42:26;;;;;;;;;;;;;;;21.65;25.09;95549.94;10380449;28;1854;-58
2022/02/01 04:47:32;;;;;;;;;;;;;;;21.62;25.18;95554.97;10403552;28;1830;-54
2022/02/01 04:52:32;;;;;;;;;;;;;;;21.63;25.09;95567.09;10384566;28;1965;-57
2022/02/01 04:57:33;;;;;;;;;;;;;;;21.62;25.23;95578.72;10383093;28;2053;-55
2022/02/01 05:02:34;;;;;;;;;;;;;;;21.58;25.13;95601.44;10378189;28;1826;-56
2022/02/01 05:07:34;;;;;;;;;;;;;;;21.57;24.56;95627.06;10386638;28;1828;-56
2022/02/01 05:12:37;;;;;;;;;;;;;;;21.59;24.98;95635.47;10378638;28;1960;-57
2022/02/01 05:17:40;;;;;;;;;;;;;;;21.59;24.77;95646.03;10385837;28;1867;-58
2022/02/01 05:22:41;;;;;;;;;;;;;;;21.56;24.75;95651.06;10383625;28;1851;-58
2022/02/01 05:27:42;;;;;;;;;;;;;;;21.55;24.78;95660.84;10390340;28;1890;-56
2022/02/01 05:32:45;;;;;;;;;;;;;;;21.55;25.00;95660.06;10385626;28;1914;-57
2022/02/01 05:37:45;;;;;;;;;;;;;;;21.63;25.35;95656.78;10387172;28;1836;-56
2022/02/01 05:43:05;;;;;;;;;;;;;;;21.65;25.44;95663.38;10388699;28;2040;-54
2022/02/01 05:48:06;;;;;;;;;;;;;;;21.62;24.25;95677.09;10386612;28;2000;-54
2022/02/01 05:53:07;;;;;;;;;;;;;;;21.64;25.71;95688.16;10392282;28;1915;-57
2022/02/01 05:58:07;;;;;;;;;;;;;;;21.64;25.00;95703.19;10367078;28;1878;-56
2022/02/01 06:03:08;;;;;;;;;;;;;;;21.57;25.08;95721.22;10386740;28;1969;-57
2022/02/01 06:08:09;;;;;;;;;;;;;;;21.52;24.44;95732.59;10384085;28;1852;-55
2022/02/01 06:13:09;;;;;;;;;;;;;;;21.47;24.04;95726.59;10382650;28;2198;-56
2022/02/01 06:18:09;;;;;;;;;;;;;;;21.58;25.12;95730.69;10386017;28;1821;-58
2022/02/01 06:23:10;;;;;;;;;;;;;;;21.59;24.81;95719.88;10385675;28;1843;-58
2022/02/01 06:28:11;;;;;;;;;;;;;;;21.58;24.94;95712.22;10389228;28;1856;-57
2022/02/01 06:33:11;;;;;;;;;;;;;;;21.52;24.76;95708.88;10384002;28;1977;-55
2022/02/01 06:38:12;;;;;;;;;;;;;;;21.49;24.01;95703.38;10386636;28;1886;-55
2022/02/01 06:43:12;;;;;;;;;;;;;;;21.42;24.26;95721.38;10389030;28;1794;-57
2022/02/01 06:48:13;;;;;;;;;;;;;;;21.50;25.14;95726.81;10400724;28;1968;-57
2022/02/01 06:53:13;;;;;;;;;;;;;;;21.54;25.37;95729.69;10390479;28;1910;-56
2022/02/01 06:58:14;;;;;;;;;;;;;;;21.51;24.50;95743.44;10385344;28;1788;-59
2022/02/01 07:03:14;;;;;;;;;;;;;;;21.49;24.56;95756.91;10383090;28;1829;-57
2022/02/01 07:08:15;;;;;;;;;;;;;;;21.47;24.59;95758.25;10384605;28;1995;-58
2022/02/01 07:13:17;;;;;;;;;;;;;;;21.38;23.86;95754.63;10383359;28;2418;-57
2022/02/01 07:18:17;;;;;;;;;;;;;;;21.39;24.39;95750.94;10402382;28;2157;-57
2022/02/01 07:23:22;;;;;;;;;;;;;;;21.41;25.07;95746.19;10386342;28;1896;-58
2022/02/01 07:28:23;;;;;;;;;;;;;;;21.36;23.92;95759.41;10389287;28;1826;-58
2022/02/01 07:33:24;;;;;;;;;;;;;;;21.36;24.54;95777.84;10378803;28;2048;-59
2022/02/01 07:38:25;;;;;;;;;;;;;;;21.34;24.52;95780.00;10383611;28;1793;-57
2022/02/01 07:43:30;;;;;;;;;;;;;;;21.38;24.34;95796.81;10393617;28;1876;-57
2022/02/01 07:48:31;;;;;;;;;;;;;;;21.34;24.33;95816.91;10380362;28;1793;-58
2022/02/01 07:53:31;;;;;;;;;;;;;;;21.31;23.76;95812.19;10377165;28;1910;-58
2022/02/01 07:58:32;;;;;;;;;;;;;;;21.31;23.81;95809.56;10384469;28;1816;-58
2022/02/01 08:03:32;;;;;;;;;;;;;;;21.30;23.92;95826.44;10384474;28;1844;-58
2022/02/01 08:08:32;;;;;;;;;;;;;;;21.33;24.33;95820.63;10383134;28;1889;-56
2022/02/01 08:19:08;;;;;;;;;;;;;;;21.29;23.93;95832.78;10382608;28;2015;-58
2022/02/01 08:24:08;;;;;;;;;;;;;;;21.28;23.75;95836.47;10384623;28;1872;-56
2022/02/01 08:29:09;;;;;;;;;;;;;;;21.30;23.73;95842.25;10412248;28;1940;-58
2022/02/01 08:34:09;;;;;;;;;;;;;;;21.27;23.70;95842.81;10400243;28;1969;-59
2022/02/01 08:39:09;;;;;;;;;;;;;;;21.27;24.07;95856.75;10383039;28;1899;-58
2022/02/01 08:44:10;;;;;;;;;;;;;;;21.28;23.62;95870.75;10384316;28;1799;-59
2022/02/01 08:49:10;;;;;;;;;;;;;;;21.29;23.95;95882.88;10396318;28;1854;-57
2022/02/01 08:54:15;;;;;;;;;;;;;;;21.28;24.10;95876.81;10384087;28;1951;-59
2022/02/01 08:59:15;;;;;;;;;;;;;;;21.42;25.14;95903.31;10383521;28;1947;-59
2022/02/01 09:04:16;;;;;;;;;;;;;;;21.42;24.53;95898.06;10386480;28;1863;-56
2022/02/01 09:09:17;;;;;;;;;;;;;;;21.37;24.35;95890.97;10394717;28;1806;-58
2022/02/01 09:14:17;;;;;;;;;;;;;;;21.32;23.51;95898.13;10390531;28;2096;-57
2022/02/01 09:19:18;;;;;;;;;;;;;;;21.38;24.06;95910.22;10386443;28;1865;-57
2022/02/01 09:24:18;;;;;;;;;;;;;;;21.42;24.20;95895.41;10388798;28;2015;-55
2022/02/01 09:29:19;;;;;;;;;;;;;;;21.38;23.86;95882.00;10393456;28;1844;-59
2022/02/01 09:34:19;;;;;;;;;;;;;;;21.38;24.07;95886.47;10390998;28;1917;-58
2022/02/01 09:39:20;;;;;;;;;;;;;;;21.39;23.98;95906.53;10378569;28;1893;-57
2022/02/01 09:44:20;;;;;;;;;;;;;;;21.37;24.91;95909.41;10387935;28;1867;-57
2022/02/01 09:49:22;;;;;;;;;;;;;;;21.44;24.39;95917.81;10386113;28;1789;-55
2022/02/01 09:54:23;;;;;;;;;;;;;;;21.54;25.31;95916.94;10389208;28;1977;-57
2022/02/01 09:59:32;;;;;;;;;;;;;;;21.58;24.84;95921.41;10388261;28;1838;-53
2022/02/01 10:04:32;;;;;;;;;;;;;;;21.53;24.66;95933.84;10387262;28;1840;-55
2022/02/01 10:09:33;;;;;;;;;;;;;;;21.50;24.99;95926.47;10387546;28;1826;-54
2022/02/01 10:14:39;;;;;;;;;;;;;;;21.51;25.15;95922.78;10405760;28;1907;-55
2022/02/01 10:19:47;;;;;;;;;;;;;;;21.42;23.82;95925.22;10382768;28;1747;-58
2022/02/01 10:24:49;;;;;;;;;;;;;;;21.39;24.08;95920.47;10386917;28;1897;-58
2022/02/01 10:29:50;;;;;;;;;;;;;;;21.42;24.69;95919.16;10387825;28;2302;-55
2022/02/01 10:34:52;;;;;;;;;;;;;;;21.43;24.67;95920.75;10385666;28;2037;-57
2022/02/01 10:39:56;;;;;;;;;;;;;;;21.45;24.99;95910.69;10387235;28;1728;-58
2022/02/01 10:44:57;;;;;;;;;;;;;;;21.43;24.47;95905.69;10371961;28;1959;-57
2022/02/01 10:50:09;;;;;;;;;;;;;;;21.39;24.74;95883.56;10382980;28;1878;-55
2022/02/01 10:55:09;;;;;;;;;;;;;;;21.49;25.53;95891.44;10389864;28;1910;-53
2022/02/01 11:00:10;;;;;;;;;;;;;;;21.51;25.38;95881.38;10380714;28;1894;-58
2022/02/01 11:05:19;;;;;;;;;;;;;;;21.51;24.45;95877.94;10382657;28;1870;-57
2022/02/01 11:10:20;;;;;;;;;;;;;;;21.53;25.47;95878.47;10381673;28;1820;-55
2022/02/01 11:15:20;;;;;;;;;;;;;;;21.55;25.76;95892.97;10386269;28;1922;-58
2022/02/01 11:20:31;;;;;;;;;;;;;;;21.57;25.88;95884.75;10384817;28;1775;-56
2022/02/01 11:25:46;;;;;;;;;;;;;;;21.64;26.55;95880.72;10384005;28;1869;-60
2022/02/01 11:30:51;;;;;;;;;;;;;;;21.64;25.75;95859.63;10390376;28;2071;-58
2022/02/01 11:35:58;;;;;;;;;;;;;;;21.65;26.26;95855.94;10385675;28;1969;-58
2022/02/01 11:40:59;;;;;;;;;;;;;;;21.64;26.34;95841.16;10379330;28;1854;-58
2022/02/01 11:46:01;;;;;;;;;;;;;;;21.61;25.24;95838.31;10382494;28;1803;-59
2022/02/01 11:51:01;;;;;;;;;;;;;;;21.26;23.88;95825.41;10376445;28;1906;-58
2022/02/01 11:56:03;;;;;;;;;;;;;;;18.81;25.16;95816.09;10382769;28;1761;-57
2022/02/01 12:01:05;;;;;;;;;;;;;;;19.54;25.11;95803.50;10384192;28;1834;-58
2022/02/01 12:06:09;;;;;;;;;;;;;;;20.02;24.89;95792.34;10380356;28;1879;-59
2022/02/01 12:11:15;;;;;;;;;;;;;;;20.32;24.69;95773.81;10381545;28;1976;-58
2022/02/01 12:16:15;;;;;;;;;;;;;;;20.50;24.53;95749.50;10382265;28;1885;-57
2022/02/01 12:21:25;;;;;;;;;;;;;;;20.61;24.12;95742.31;10382088;28;1835;-58
2022/02/01 12:26:26;;;;;;;;;;;;;;;20.70;24.38;95730.94;10386982;28;1867;-59
2022/02/01 12:31:27;;;;;;;;;;;;;;;20.76;24.05;95710.59;10399019;28;2126;-54
2022/02/01 12:36:34;;;;;;;;;;;;;;;20.81;24.23;95713.97;10382185;28;1842;-58
2022/02/01 12:41:42;;;;;;;;;;;;;;;20.87;23.76;95706.81;10379433;28;1816;-59
2022/02/01 12:46:52;;;;;;;;;;;;;;;20.87;24.18;95715.53;10383449;28;1761;-58
2022/02/01 12:51:53;;;;;;;;;;;;;;;20.88;23.82;95703.91;10383906;28;1938;-56
2022/02/01 12:57:11;;;;;;;;;;;;;;;20.90;23.79;95712.31;10382792;28;1890;-58
2022/02/01 13:02:13;;;;;;;;;;;;;;;20.92;23.51;95699.66;10386460;28;1861;-58
2022/02/01 13:07:20;;;;;;;;;;;;;;;20.94;23.71;95702.00;10383790;28;1917;-56
2022/02/01 13:17:47;;;;;;;;;;;;;;;20.96;23.97;95690.13;10384887;28;1775;-56
2022/02/01 13:22:55;;;;;;;;;;;;;;;20.99;23.89;95679.06;10377215;28;1871;-57
2022/02/01 13:27:56;;;;;;;;;;;;;;;21.02;24.46;95672.44;10400103;28;2018;-57
2022/02/01 13:33:04;;;;;;;;;;;;;;;21.00;24.03;95659.53;10378570;28;1971;-58
2022/02/01 13:38:08;;;;;;;;;;;;;;;20.99;23.81;95657.97;10380775;28;1872;-58
2022/02/01 13:43:12;;;;;;;;;;;;;;;21.00;23.83;95637.66;10384920;28;1879;-59
2022/02/01 13:48:17;;;;;;;;;;;;;;;20.98;24.24;95618.69;10391109;28;2176;-57
2022/02/01 13:53:18;;;;;;;;;;;;;;;21.02;24.12;95609.19;10386423;28;2324;-57
2022/02/01 13:58:20;;;;;;;;;;;;;;;21.02;24.45;95588.91;10392801;28;1677;-56
2022/02/01 14:08:32;;;;;;;;;;;;;;;20.96;24.27;95624.25;10402084;28;1786;-56
2022/02/01 14:25:19;;;;;;;;;;;;;;;20.95;23.78;95583.19;10420198;28;1834;-70
2022/02/01 14:34:43;;;;;;;;;;;;;;;20.99;24.00;95572.84;10432516;28;1975;-66
2022/02/01 14:45:07;;;;;;;;;;;;;;;20.98;24.02;95535.16;10417497;28;1871;-69
2022/02/01 14:50:07;;;;;;;;;;;;;;;20.97;24.05;95538.09;10410703;28;1766;-69
2022/02/01 14:55:10;;;;;;;;;;;;;;;20.96;23.96;95521.50;10426784;28;1995;-68
2022/02/01 15:11:23;;;;;;;;;;;;;;;20.94;23.85;95509.66;10427485;28;1800;-69
2022/02/01 15:16:23;;;;;;;;;;;;;;;20.95;23.86;95504.13;10411898;28;1860;-68
2022/02/01 15:21:24;;;;;;;;;;;;;;;20.94;23.93;95497.28;10430725;28;1976;-67
2022/02/01 15:26:24;;;;;;;;;;;;;;;20.93;23.94;95489.66;10429562;28;1882;-69
2022/02/01 15:31:25;;;;;;;;;;;;;;;20.88;23.95;95472.06;10428671;28;1938;-68
2022/02/01 15:36:27;;;;;;;;;;;;;;;20.87;23.71;95485.53;10425615;28;1914;-69
2022/02/01 15:57:29;;;;;;;;;;;;;;;20.96;25.11;95420.56;10342722;28;1988;-69
2022/02/01 16:02:34;;;;;;;;;;;;;;;20.97;24.43;95432.69;10421484;28;1726;-70
2022/02/01 16:07:38;;;;;;;;;;;;;;;20.96;25.61;95405.56;10438735;28;1875;-69
2022/02/01 16:12:40;;;;;;;;;;;;;;;20.96;25.40;95388.97;10419304;28;1985;-68
2022/02/01 16:17:41;;;;;;;;;;;;;;;20.97;25.22;95370.25;10422742;28;1806;-70
2022/02/01 16:22:44;;;;;;;;;;;;;;;20.97;26.15;95338.63;10425947;28;1878;-71
2022/02/01 16:27:44;;;;;;;;;;;;;;;20.93;25.17;95329.72;10426986;28;1767;-70
2022/02/01 16:32:49;;;;;;;;;;;;;;;20.95;25.43;95324.16;10424890;28;1985;-70
2022/02/01 16:37:50;;;;;;;;;;;;;;;20.96;25.43;95302.00;10425042;28;1895;-70
2022/02/01 16:42:50;;;;;;;;;;;;;;;20.93;24.99;95306.03;10408042;28;1823;-70
2022/02/01 16:47:51;;;;;;;;;;;;;;;21.05;26.27;95290.56;10429057;28;1768;-68
2022/02/01 16:52:56;;;;;;;;;;;;;;;20.97;25.22;95277.25;10425662;28;1973;-69
2022/02/01 16:57:58;;;;;;;;;;;;;;;21.16;25.57;95271.97;10425681;28;1873;-71
2022/02/01 17:02:59;;;;;;;;;;;;;;;21.09;25.48;95245.97;10406220;28;1892;-75
2022/02/01 17:07:59;;;;;;;;;;;;;;;20.97;25.10;95253.53;10428850;28;1501;-70
2022/02/01 17:18:27;;;;;;;;;;;;;;;20.92;24.72;95238.56;10421546;28;1336;-72
2022/02/01 17:23:28;;;;;;;;;;;;;;;20.89;24.64;95227.84;10428346;28;1411;-72
2022/02/01 17:28:28;;;;;;;;;;;;;;;20.89;24.66;95218.09;10430230;28;1407;-72
2022/02/01 17:33:28;;;;;;;;;;;;;;;20.87;24.57;95201.78;10429154;28;1973;-71
2022/02/01 17:38:29;;;;;;;;;;;;;;;20.98;24.95;95205.81;10429917;28;1396;-73
2022/02/01 17:43:29;;;;;;;;;;;;;;;20.92;24.30;95211.44;10427702;28;1284;-73
2022/02/01 17:48:32;;;;;;;;;;;;;;;20.88;24.35;95190.16;10428585;28;1411;-71
2022/02/01 17:58:39;;;;;;;;;;;;;;;20.89;24.34;95186.47;10433004;28;1435;-73
2022/02/01 18:03:40;;;;;;;;;;;;;;;20.87;24.37;95193.88;10432175;28;1625;-72
2022/02/01 18:08:41;;;;;;;;;;;;;;;20.94;24.42;95177.69;10408888;28;1351;-73
2022/02/01 18:13:58;;;;;;;;;;;;;;;20.89;24.22;95189.09;10435683;28;1922;-75
2022/02/01 18:18:58;;;;;;;;;;;;;;;20.94;24.46;95207.44;10433340;28;1637;-74
2022/02/01 18:23:58;;;;;;;;;;;;;;;20.95;24.64;95180.03;10435899;28;1384;-71
2022/02/01 18:28:59;;;;;;;;;;;;;;;20.98;24.49;95186.56;10423207;28;1407;-72
2022/02/01 18:34:00;;;;;;;;;;;;;;;21.00;24.65;95190.47;10413647;28;1906;-72
2022/02/01 18:39:01;;;;;;;;;;;;;;;21.07;24.94;95192.78;10427983;28;1439;-72
2022/02/01 18:44:02;;;;;;;;;;;;;;;21.18;25.31;95203.94;10410635;28;1556;-72
2022/02/01 18:49:13;;;;;;;;;;;;;;;21.12;24.90;95181.38;10410342;28;1555;-72
2022/02/01 18:54:24;;;;;;;;;;;;;;;21.02;25.11;95193.63;10420685;28;1914;-70
2022/02/01 18:59:39;;;;;;;;;;;;;;;21.06;25.44;95178.81;10429923;28;1469;-70
2022/02/01 19:05:11;;;;;;;;;;;;;;;21.23;25.64;95182.75;10428698;28;1403;-68
2022/02/01 19:15:18;;;;;;;;;;;;;;;21.19;25.24;95165.94;10428233;28;1918;-70
2022/02/01 19:20:18;;;;;;;;;;;;;;;21.17;25.31;95162.81;10410955;28;1850;-68
2022/02/01 19:25:26;;;;;;;;;;;;;;;21.15;25.27;95186.06;10429972;28;2393;-68
2022/02/01 19:30:26;;;;;;;;;;;;;;;21.16;25.64;95185.00;10429319;28;1783;-68
2022/02/01 19:35:27;;;;;;;;;;;;;;;21.07;24.83;95158.53;10426443;28;2013;-69
2022/02/01 19:40:27;;;;;;;;;;;;;;;21.09;25.57;95169.56;10423303;28;1971;-68
2022/02/01 19:45:28;;;;;;;;;;;;;;;21.13;25.44;95164.47;10426647;28;1893;-69
2022/02/01 19:50:32;;;;;;;;;;;;;;;21.15;25.51;95139.41;10419478;28;1864;-69
2022/02/01 19:55:32;;;;;;;;;;;;;;;21.15;26.14;95120.16;10401090;28;1960;-68
2022/02/01 20:00:33;;;;;;;;;;;;;;;21.22;26.23;95145.09;10408877;28;1854;-68
2022/02/01 20:05:33;;;;;;;;;;;;;;;21.23;25.98;95146.63;10422015;28;1819;-68
2022/02/01 20:10:35;;;;;;;;;;;;;;;21.33;26.18;95156.22;10409010;28;1855;-69
2022/02/01 20:15:36;;;;;;;;;;;;;;;21.26;25.80;95140.00;10426640;28;1914;-68
2022/02/01 20:20:37;;;;;;;;;;;;;;;21.22;25.63;95160.09;10422511;28;1873;-69
2022/02/01 20:25:37;;;;;;;;;;;;;;;21.17;25.01;95162.81;10422784;28;1950;-69
2022/02/01 20:30:38;;;;;;;;;;;;;;;21.20;26.54;95157.78;10420425;28;1831;-70
2022/02/01 20:35:41;;;;;;;;;;;;;;;21.15;25.54;95160.47;10425096;28;1910;-69
2022/02/01 20:40:45;;;;;;;;;;;;;;;21.17;26.47;95153.06;10423636;28;1853;-69
2022/02/01 20:45:47;;;;;;;;;;;;;;;21.20;25.57;95143.81;10422683;28;1869;-69
2022/02/01 20:50:48;;;;;;;;;;;;;;;21.15;25.25;95163.13;10421357;28;1878;-70
2022/02/01 20:55:48;;;;;;;;;;;;;;;21.14;25.65;95155.50;10412231;28;1961;-71
2022/02/01 21:00:53;;;;;;;;;;;;;;;21.13;25.40;95135.47;10435714;28;1810;-69
2022/02/01 21:05:54;;;;;;;;;;;;;;;21.09;24.98;95140.56;10415467;28;1877;-71
2022/02/01 21:10:55;;;;;;;;;;;;;;;21.13;25.19;95135.47;10430935;28;1881;-71
2022/02/01 21:15:55;;;;;;;;;;;;;;;21.08;24.95;95132.97;10392575;28;2134;-70
2022/02/01 21:20:56;;;;;;;;;;;;;;;21.04;24.99;95138.78;10414186;28;1807;-72
2022/02/01 21:25:57;;;;;;;;;;;;;;;21.06;25.12;95163.00;10412435;28;1862;-69
2022/02/01 21:30:59;;;;;;;;;;;;;;;21.10;24.79;95155.31;10432545;28;1837;-71
2022/02/01 21:36:00;;;;;;;;;;;;;;;21.08;25.50;95132.97;10433310;28;1981;-69
2022/02/01 21:41:00;;;;;;;;;;;;;;;21.12;25.44;95145.25;10432091;28;1860;-69
2022/02/01 21:46:00;;;;;;;;;;;;;;;21.16;27.07;95156.78;10432373;28;1814;-70
2022/02/01 21:51:01;;;;;;;;;;;;;;;21.14;25.38;95158.16;10431231;28;1910;-70
2022/02/01 21:56:01;;;;;;;;;;;;;;;21.16;25.95;95161.28;10428845;28;1928;-70
2022/02/01 22:01:05;;;;;;;;;;;;;;;21.14;26.24;95152.88;10428568;28;1831;-70
2022/02/01 22:06:07;;;;;;;;;;;;;;;21.14;26.36;95164.22;10423341;28;1867;-70
2022/02/01 22:11:07;;;;;;;;;;;;;;;21.13;26.84;95169.75;10430442;28;1878;-69
2022/02/01 22:16:07;;;;;;;;;;;;;;;21.09;26.66;95172.19;10429015;28;1969;-70
2022/02/01 22:21:09;;;;;;;;;;;;;;;21.09;26.75;95166.91;10435180;28;1942;-71
2022/02/01 22:26:09;;;;;;;;;;;;;;;21.07;26.26;95147.97;10431581;28;1853;-68
2022/02/01 22:31:09;;;;;;;;;;;;;;;21.08;25.91;95147.69;10433790;28;1851;-70
2022/02/01 22:36:11;;;;;;;;;;;;;;;21.06;26.13;95147.19;10413580;28;1975;-70
2022/02/01 22:41:11;;;;;;;;;;;;;;;21.01;25.57;95157.03;10434965;28;1636;-70
2022/02/01 22:46:15;;;;;;;;;;;;;;;20.97;25.44;95159.47;10435957;28;1956;-69
2022/02/01 22:51:16;;;;;;;;;;;;;;;21.01;25.59;95170.97;10417252;28;1943;-69
2022/02/01 22:56:17;;;;;;;;;;;;;;;21.06;26.05;95160.38;10429694;28;1973;-69
2022/02/01 23:01:18;;;;;;;;;;;;;;;21.00;26.55;95150.16;10419375;28;1823;-69
2022/02/01 23:06:21;;;;;;;;;;;;;;;21.02;25.97;95145.41;10430029;28;1845;-69
2022/02/01 23:14:50;;;;;;;;;;;;;;;20.98;25.30;95134.66;10428328;28;1766;-70
2022/02/01 23:22:09;;;;;;;;;;;;;;;21.03;26.19;95145.16;10430008;28;1883;-70
2022/02/01 23:27:11;;;;;;;;;;;;;;;21.00;25.60;95148.31;10408811;28;1860;-70
2022/02/01 23:32:20;;;;;;;;;;;;;;;20.98;25.70;95150.47;10426611;28;1977;-70
2022/02/01 23:48:03;;;;;;;;;;;;;;;21.07;26.41;95190.16;10430501;28;1736;-70
2022/02/01 23:53:04;;;;;;;;;;;;;;;21.04;25.82;95190.75;10430531;28;1969;-70
2022/02/01 23:58:21;;;;;;;;;;;;;;;21.10;26.34;95199.34;10435453;28;1803;-70
